Time,TemperatureF,DewpointF,PressureIn,WindDirection,WindDirectionDegrees,WindSpeedMPH,WindSpeedGustMPH,Humidity,HourlyPrecipIn,Conditions,Clouds,dailyrainin,SoftwareType,DateUTC
2013-05-15 00:02:00,51.8,48.4,29.89,WNW,292,0.0,0.0,88,0.00,CLR,SKC,0.00,WeatherDisplay:10.37,2013-05-14 22:02:00,
2013-05-15 00:07:00,51.8,48.4,29.89,WSW,248,0.0,0.0,88,0.00,CLR,SKC,0.00,WeatherDisplay:10.37,2013-05-14 22:07:00,
2013-05-15 00:12:00,52.3,48.9,29.88,South,180,0.0,0.0,88,0.00,CLR,SKC,0.00,WeatherDisplay:10.37,2013-05-14 22:12:00,
2013-05-15 00:18:00,52.3,48.9,29.88,South,180,0.0,0.0,88,0.00,CLR,SKC,0.00,WeatherDisplay:10.37,2013-05-14 22:18:00,
2013-05-15 00:23:00,52.5,49.1,29.88,South,180,0.0,0.0,88,0.00,CLR,SKC,0.00,WeatherDisplay:10.37,2013-05-14 22:23:00,
2013-05-15 00:28:00,52.5,49.1,29.88,South,180,0.0,0.0,88,0.00,CLR,SKC,0.00,WeatherDisplay:10.37,2013-05-14 22:28:00,
2013-05-15 00:33:00,52.7,49.2,29.88,South,180,0.0,0.0,88,0.00,CLR,SKC,0.00,WeatherDisplay:10.37,2013-05-14 22:33:00,
2013-05-15 00:38:00,52.7,49.2,29.89,South,180,0.0,0.0,88,0.00,CLR,SKC,0.00,WeatherDisplay:10.37,2013-05-14 22:38:00,
2013-05-15 00:43:00,52.9,49.4,29.88,SSW,202,0.0,0.0,88,0.00,CLR,SKC,0.00,WeatherDisplay:10.37,2013-05-14 22:43:00,
2013-05-15 00:48:00,52.9,49.4,29.88,SSW,202,0.0,0.0,88,0.00,CLR,SKC,0.00,WeatherDisplay:10.37,2013-05-14 22:48:00,
2013-05-15 00:53:00,53.2,49.8,29.88,West,270,0.0,0.0,88,0.00,CLR,SKC,0.00,WeatherDisplay:10.37,2013-05-14 22:53:00,
2013-05-15 00:58:00,53.2,49.8,29.89,West,270,0.0,0.0,88,0.00,CLR,SKC,0.00,WeatherDisplay:10.37,2013-05-14 22:58:00,
2013-05-15 01:03:00,53.2,49.8,29.88,West,270,0.0,0.0,88,0.00,CLR,SKC,0.00,WeatherDisplay:10.37,2013-05-14 23:03:00,
2013-05-15 01:08:00,53.2,49.8,29.88,West,270,0.0,0.0,88,0.00,CLR,SKC,0.00,WeatherDisplay:10.37,2013-05-14 23:08:00,
2013-05-15 01:13:00,53.1,49.6,29.88,West,270,0.0,0.0,88,0.00,CLR,SKC,0.00,WeatherDisplay:10.37,2013-05-14 23:13:00,
2013-05-15 01:18:00,52.7,49.2,29.88,West,270,0.0,0.0,88,0.00,CLR,SKC,0.00,WeatherDisplay:10.37,2013-05-14 23:18:00,
2013-05-15 01:23:00,52.3,48.9,29.88,West,270,0.0,0.0,88,0.00,CLR,SKC,0.00,WeatherDisplay:10.37,2013-05-14 23:23:00,
2013-05-15 01:28:00,52.0,48.5,29.88,West,270,0.0,0.0,88,0.00,CLR,SKC,0.00,WeatherDisplay:10.37,2013-05-14 23:28:00,
2013-05-15 01:33:00,51.6,48.2,29.88,West,270,0.0,0.0,88,0.00,CLR,SKC,0.00,WeatherDisplay:10.37,2013-05-14 23:33:00,
2013-05-15 01:38:00,51.1,47.6,29.88,West,270,0.0,0.0,88,0.00,CLR,SKC,0.00,WeatherDisplay:10.37,2013-05-14 23:38:00,
2013-05-15 01:43:00,50.9,47.5,29.88,West,270,0.0,0.0,88,0.00,CLR,SKC,0.00,WeatherDisplay:10.37,2013-05-14 23:43:00,
2013-05-15 01:48:00,50.7,47.3,29.88,West,270,0.0,0.0,88,0.00,CLR,SKC,0.00,WeatherDisplay:10.37,2013-05-14 23:48:00,
2013-05-15 01:53:00,50.4,46.9,29.87,West,270,0.0,0.0,88,0.00,CLR,SKC,0.00,WeatherDisplay:10.37,2013-05-14 23:53:00,
2013-05-15 01:58:00,50.4,46.9,29.87,West,270,0.0,0.0,88,0.00,CLR,SKC,0.00,WeatherDisplay:10.37,2013-05-14 23:58:00,
2013-05-15 02:03:00,50.0,46.6,29.87,West,270,0.0,0.0,88,0.00,CLR,SKC,0.00,WeatherDisplay:10.37,2013-05-15 00:03:00,
2013-05-15 02:08:00,49.6,46.2,29.87,West,270,0.0,0.0,88,0.00,CLR,SKC,0.00,WeatherDisplay:10.37,2013-05-15 00:08:00,
2013-05-15 02:13:00,49.6,46.2,29.88,West,270,0.0,0.0,88,0.00,CLR,SKC,0.00,WeatherDisplay:10.37,2013-05-15 00:13:00,
2013-05-15 02:18:00,49.5,46.1,29.87,West,270,0.0,0.0,88,0.00,CLR,SKC,0.00,WeatherDisplay:10.37,2013-05-15 00:18:00,
2013-05-15 02:23:00,49.1,46.0,29.87,West,270,0.0,0.0,89,0.00,CLR,SKC,0.00,WeatherDisplay:10.37,2013-05-15 00:23:00,
2013-05-15 02:28:00,48.9,45.8,29.87,West,270,0.0,0.0,89,0.00,CLR,SKC,0.00,WeatherDisplay:10.37,2013-05-15 00:28:00,
2013-05-15 02:33:00,48.9,45.8,29.87,West,270,0.0,0.0,89,0.00,CLR,SKC,0.00,WeatherDisplay:10.37,2013-05-15 00:33:00,
2013-05-15 02:38:00,48.7,45.6,29.87,West,270,0.0,0.0,89,0.00,CLR,SKC,0.00,WeatherDisplay:10.37,2013-05-15 00:38:00,
2013-05-15 02:43:00,48.6,45.5,29.87,West,270,0.0,0.0,89,0.00,CLR,SKC,0.00,WeatherDisplay:10.37,2013-05-15 00:43:00,
2013-05-15 02:48:00,48.6,45.5,29.87,West,270,0.0,0.0,89,0.00,CLR,SKC,0.00,WeatherDisplay:10.37,2013-05-15 00:48:00,
2013-05-15 02:53:00,48.4,45.3,29.87,WNW,290,0.0,0.0,89,0.00,CLR,SKC,0.00,WeatherDisplay:10.37,2013-05-15 00:53:00,
2013-05-15 02:58:00,48.2,45.1,29.87,NNW,327,0.0,0.0,89,0.00,CLR,SKC,0.00,WeatherDisplay:10.37,2013-05-15 00:58:00,
2013-05-15 03:03:00,48.0,44.9,29.87,NW,315,0.0,0.0,89,0.00,CLR,SKC,0.00,WeatherDisplay:10.37,2013-05-15 01:03:00,
2013-05-15 03:08:00,48.0,44.9,29.87,NW,315,0.0,0.0,89,0.00,CLR,SKC,0.00,WeatherDisplay:10.37,2013-05-15 01:08:00,
2013-05-15 03:13:00,47.8,45.0,29.87,NW,315,0.0,0.0,90,0.00,CLR,SKC,0.00,WeatherDisplay:10.37,2013-05-15 01:13:00,
2013-05-15 03:18:00,47.8,45.0,29.87,NW,315,0.0,0.0,90,0.00,CLR,SKC,0.00,WeatherDisplay:10.37,2013-05-15 01:18:00,
2013-05-15 03:23:00,47.8,45.0,29.87,NW,315,0.0,0.0,90,0.00,CLR,SKC,0.00,WeatherDisplay:10.37,2013-05-15 01:23:00,
2013-05-15 03:28:00,47.5,44.7,29.86,NW,315,0.0,0.0,90,0.00,CLR,SKC,0.00,WeatherDisplay:10.37,2013-05-15 01:28:00,
2013-05-15 03:33:00,47.5,44.7,29.86,NW,315,0.0,0.0,90,0.00,CLR,SKC,0.00,WeatherDisplay:10.37,2013-05-15 01:33:00,
2013-05-15 03:38:00,47.1,44.3,29.86,NW,315,0.0,0.0,90,0.00,CLR,SKC,0.00,WeatherDisplay:10.37,2013-05-15 01:38:00,
2013-05-15 03:43:00,47.1,44.3,29.86,NW,315,0.0,0.0,90,0.00,CLR,SKC,0.00,WeatherDisplay:10.37,2013-05-15 01:43:00,
2013-05-15 03:48:00,46.9,44.2,29.86,NW,315,0.0,0.0,90,0.00,CLR,SKC,0.00,WeatherDisplay:10.37,2013-05-15 01:48:00,
2013-05-15 03:53:00,46.9,44.2,29.86,NW,315,0.0,0.0,90,0.00,CLR,SKC,0.00,WeatherDisplay:10.37,2013-05-15 01:53:00,
2013-05-15 03:58:00,46.9,44.2,29.85,NW,315,0.0,0.0,90,0.00,CLR,SKC,0.00,WeatherDisplay:10.37,2013-05-15 01:58:00,
2013-05-15 04:03:00,46.8,44.3,29.85,NW,315,0.0,0.0,91,0.00,CLR,SKC,0.00,WeatherDisplay:10.37,2013-05-15 02:03:00,
2013-05-15 04:08:00,46.8,44.3,29.85,NW,315,0.0,0.0,91,0.00,CLR,SKC,0.00,WeatherDisplay:10.37,2013-05-15 02:08:00,
2013-05-15 04:13:00,46.8,44.3,29.85,NW,315,0.0,0.0,91,0.00,CLR,SKC,0.00,WeatherDisplay:10.37,2013-05-15 02:13:00,
2013-05-15 04:18:00,46.6,44.1,29.85,NW,315,0.0,0.0,91,0.00,CLR,SKC,0.00,WeatherDisplay:10.37,2013-05-15 02:18:00,
2013-05-15 04:23:00,46.6,44.1,29.85,NW,315,0.0,0.0,91,0.00,CLR,SKC,0.00,WeatherDisplay:10.37,2013-05-15 02:23:00,
2013-05-15 04:28:00,46.2,43.7,29.85,NW,315,0.0,0.0,91,0.00,CLR,SKC,0.00,WeatherDisplay:10.37,2013-05-15 02:28:00,
2013-05-15 04:33:00,46.2,43.7,29.85,NW,315,0.0,0.0,91,0.00,CLR,SKC,0.00,WeatherDisplay:10.37,2013-05-15 02:33:00,
2013-05-15 04:38:00,46.2,43.7,29.85,NW,315,0.0,0.0,91,0.00,CLR,SKC,0.00,WeatherDisplay:10.37,2013-05-15 02:38:00,
2013-05-15 04:43:00,46.2,43.7,29.85,NW,315,0.0,0.0,91,0.00,CLR,SKC,0.00,WeatherDisplay:10.37,2013-05-15 02:43:00,
2013-05-15 04:48:00,46.2,43.7,29.85,NW,315,0.0,0.0,91,0.00,CLR,SKC,0.00,WeatherDisplay:10.37,2013-05-15 02:48:00,
2013-05-15 04:53:00,46.2,43.7,29.85,NW,315,0.0,0.0,91,0.00,CLR,SKC,0.00,WeatherDisplay:10.37,2013-05-15 02:53:00,
2013-05-15 04:58:00,46.0,43.6,29.85,NW,315,0.0,0.0,91,0.00,CLR,SKC,0.00,WeatherDisplay:10.37,2013-05-15 02:58:00,
2013-05-15 05:03:00,46.0,43.6,29.85,NW,315,0.0,0.0,91,0.00,CLR,SKC,0.00,WeatherDisplay:10.37,2013-05-15 03:03:00,
2013-05-15 05:08:00,46.0,43.6,29.85,NW,315,0.0,0.0,91,0.00,CLR,SKC,0.00,WeatherDisplay:10.37,2013-05-15 03:08:00,
2013-05-15 05:13:00,46.0,43.6,29.85,NW,315,0.0,0.0,91,0.00,CLR,SKC,0.00,WeatherDisplay:10.37,2013-05-15 03:13:00,
2013-05-15 05:18:00,46.0,43.6,29.85,WNW,292,0.0,0.0,91,0.00,CLR,SKC,0.00,WeatherDisplay:10.37,2013-05-15 03:18:00,
2013-05-15 05:23:00,46.0,43.6,29.85,WNW,292,0.0,0.0,91,0.00,CLR,SKC,0.00,WeatherDisplay:10.37,2013-05-15 03:23:00,
2013-05-15 05:28:00,45.9,43.4,29.85,WNW,292,0.0,0.0,91,0.00,CLR,SKC,0.00,WeatherDisplay:10.37,2013-05-15 03:28:00,
2013-05-15 05:33:00,45.9,43.4,29.84,WNW,292,0.0,0.0,91,0.00,CLR,SKC,0.00,WeatherDisplay:10.37,2013-05-15 03:33:00,
2013-05-15 05:38:00,45.9,43.4,29.84,WNW,292,0.0,0.0,91,0.00,CLR,SKC,0.00,WeatherDisplay:10.37,2013-05-15 03:38:00,
2013-05-15 05:43:00,46.0,43.6,29.84,WNW,292,0.0,0.0,91,0.00,CLR,SKC,0.00,WeatherDisplay:10.37,2013-05-15 03:43:00,
2013-05-15 05:48:00,46.0,43.6,29.84,WNW,292,0.0,0.0,91,0.00,CLR,SKC,0.00,WeatherDisplay:10.37,2013-05-15 03:48:00,
2013-05-15 05:53:00,46.2,43.7,29.85,SSW,202,0.0,0.0,91,0.00,CLR,SKC,0.00,WeatherDisplay:10.37,2013-05-15 03:53:00,
2013-05-15 05:58:00,46.6,44.4,29.85,SSW,202,0.0,0.0,92,0.00,CLR,SKC,0.00,WeatherDisplay:10.37,2013-05-15 03:58:00,
2013-05-15 06:01:00,46.6,44.4,29.85,SSW,202,0.0,0.0,92,0.00,CLR,SKC,0.00,WeatherDisplay:10.37,2013-05-15 04:01:00,
2013-05-15 06:03:00,46.6,44.1,29.85,SSW,202,0.0,0.0,91,0.00,CLR,SKC,0.00,WeatherDisplay:10.37,2013-05-15 04:03:00,
2013-05-15 06:08:00,46.9,44.7,29.85,South,180,0.0,0.0,92,0.00,CLR,SKC,0.00,WeatherDisplay:10.37,2013-05-15 04:08:00,
2013-05-15 06:13:00,47.1,44.6,29.85,South,180,0.0,0.0,91,0.00,CLR,SKC,0.00,WeatherDisplay:10.37,2013-05-15 04:13:00,
2013-05-15 06:18:00,47.3,45.1,29.85,ESE,112,0.0,0.0,92,0.00,CLR,SKC,0.00,WeatherDisplay:10.37,2013-05-15 04:18:00,
2013-05-15 06:23:00,47.3,45.1,29.85,South,180,0.0,0.0,92,0.00,CLR,SKC,0.00,WeatherDisplay:10.37,2013-05-15 04:23:00,
2013-05-15 06:28:00,48.4,46.2,29.85,SSE,158,1.4,1.4,92,0.00,CLR,SKC,0.00,WeatherDisplay:10.37,2013-05-15 04:28:00,
2013-05-15 06:33:00,48.4,46.2,29.85,SSE,158,0.0,0.0,92,0.00,CLR,SKC,0.00,WeatherDisplay:10.37,2013-05-15 04:33:00,
2013-05-15 06:38:00,48.4,46.2,29.85,SSE,158,0.0,0.0,92,0.00,CLR,SKC,0.00,WeatherDisplay:10.37,2013-05-15 04:38:00,
2013-05-15 06:43:00,49.6,47.4,29.86,ENE,68,0.0,0.0,92,0.00,CLR,SKC,0.00,WeatherDisplay:10.37,2013-05-15 04:43:00,
2013-05-15 06:48:00,49.8,47.6,29.86,ENE,68,0.0,0.0,92,0.00,CLR,SKC,0.00,WeatherDisplay:10.37,2013-05-15 04:48:00,
2013-05-15 06:53:00,49.8,47.6,29.86,ENE,68,0.0,0.0,92,0.00,CLR,SKC,0.00,WeatherDisplay:10.37,2013-05-15 04:53:00,
2013-05-15 06:58:00,50.7,48.5,29.85,NE,45,0.0,0.0,92,0.00,CLR,SKC,0.00,WeatherDisplay:10.37,2013-05-15 04:58:00,
2013-05-15 07:03:00,51.3,49.0,29.86,ENE,68,0.0,0.0,92,0.00,CLR,SKC,0.00,WeatherDisplay:10.37,2013-05-15 05:03:00,
2013-05-15 07:08:00,51.3,49.0,29.86,East,90,0.0,0.0,92,0.00,CLR,SKC,0.00,WeatherDisplay:10.37,2013-05-15 05:08:00,
2013-05-15 07:13:00,51.6,49.4,29.86,ENE,68,0.0,0.0,92,0.00,CLR,SKC,0.00,WeatherDisplay:10.37,2013-05-15 05:13:00,
2013-05-15 07:18:00,52.3,49.8,29.87,NNE,22,0.0,0.0,91,0.00,CLR,SKC,0.00,WeatherDisplay:10.37,2013-05-15 05:18:00,
2013-05-15 07:23:00,53.4,50.9,29.86,ENE,68,0.0,0.0,91,0.00,CLR,SKC,0.00,WeatherDisplay:10.37,2013-05-15 05:23:00,
2013-05-15 07:28:00,54.0,51.4,29.87,ENE,68,0.0,0.0,91,0.00,CLR,SKC,0.00,WeatherDisplay:10.37,2013-05-15 05:28:00,
2013-05-15 07:33:00,54.0,51.4,29.87,ENE,68,0.0,0.0,91,0.00,CLR,SKC,0.00,WeatherDisplay:10.37,2013-05-15 05:33:00,
2013-05-15 07:38:00,55.9,52.7,29.86,ESE,112,0.0,0.0,89,0.00,CLR,SKC,0.00,WeatherDisplay:10.37,2013-05-15 05:38:00,
2013-05-15 07:43:00,55.9,52.7,29.86,ESE,112,0.0,0.0,89,0.00,CLR,SKC,0.00,WeatherDisplay:10.37,2013-05-15 05:43:00,
2013-05-15 07:48:00,57.7,52.9,29.86,East,90,0.0,0.0,84,0.00,CLR,SKC,0.00,WeatherDisplay:10.37,2013-05-15 05:48:00,
2013-05-15 07:53:00,58.1,53.0,29.86,NE,45,0.0,0.0,83,0.00,CLR,SKC,0.00,WeatherDisplay:10.37,2013-05-15 05:53:00,
2013-05-15 07:58:00,59.5,53.7,29.86,ENE,68,0.0,0.0,81,0.00,CLR,SKC,0.00,WeatherDisplay:10.37,2013-05-15 05:58:00,
2013-05-15 08:03:00,60.1,53.9,29.86,East,90,0.0,0.0,80,0.00,CLR,SKC,0.00,WeatherDisplay:10.37,2013-05-15 06:03:00,
2013-05-15 08:08:00,60.6,53.7,29.85,ENE,68,0.0,0.0,78,0.00,CLR,SKC,0.00,WeatherDisplay:10.37,2013-05-15 06:08:00,
2013-05-15 08:13:00,60.6,53.7,29.86,NNE,22,0.0,0.0,78,0.00,CLR,SKC,0.00,WeatherDisplay:10.37,2013-05-15 06:13:00,
2013-05-15 08:18:00,61.0,53.4,29.86,NE,45,0.0,0.0,76,0.00,CLR,SKC,0.00,WeatherDisplay:10.37,2013-05-15 06:18:00,
2013-05-15 08:23:00,61.0,53.0,29.86,NNW,338,0.0,0.0,75,0.00,CLR,SKC,0.00,WeatherDisplay:10.37,2013-05-15 06:23:00,
2013-05-15 08:28:00,61.0,52.6,29.86,NNE,22,0.0,0.0,74,0.00,CLR,SKC,0.00,WeatherDisplay:10.37,2013-05-15 06:28:00,
2013-05-15 08:33:00,61.3,53.0,29.86,SSE,158,0.3,1.2,74,0.00,CLR,SKC,0.00,WeatherDisplay:10.37,2013-05-15 06:33:00,
2013-05-15 08:38:00,62.1,52.9,29.86,ESE,112,0.0,1.1,72,0.00,CLR,SKC,0.00,WeatherDisplay:10.37,2013-05-15 06:38:00,
2013-05-15 08:43:00,62.4,53.3,29.86,East,90,1.0,3.5,72,0.00,CLR,SKC,0.00,WeatherDisplay:10.37,2013-05-15 06:43:00,
2013-05-15 08:48:00,62.4,53.3,29.86,ENE,68,0.0,0.0,72,0.00,CLR,SKC,0.00,WeatherDisplay:10.37,2013-05-15 06:48:00,
2013-05-15 08:53:00,62.6,53.1,29.86,West,270,0.0,0.0,71,0.00,CLR,SKC,0.00,WeatherDisplay:10.37,2013-05-15 06:53:00,
2013-05-15 08:58:00,63.1,53.6,29.86,WNW,292,0.0,0.0,71,0.00,CLR,SKC,0.00,WeatherDisplay:10.37,2013-05-15 06:58:00,
2013-05-15 09:03:00,63.1,52.8,29.86,ESE,112,0.0,0.0,69,0.00,CLR,SKC,0.00,WeatherDisplay:10.37,2013-05-15 07:03:00,
2013-05-15 09:08:00,63.3,53.4,29.86,NNE,22,0.0,0.0,70,0.00,CLR,SKC,0.00,WeatherDisplay:10.37,2013-05-15 07:08:00,
2013-05-15 09:13:00,64.0,53.7,29.86,NE,45,0.0,1.6,69,0.00,CLR,SKC,0.00,WeatherDisplay:10.37,2013-05-15 07:13:00,
2013-05-15 09:18:00,63.7,53.3,29.86,NNE,22,1.6,2.3,69,0.00,FEW,SKC,0.00,WeatherDisplay:10.37,2013-05-15 07:18:00,
2013-05-15 09:23:00,63.9,53.5,29.86,SSE,158,0.0,0.0,69,0.00,FEW,SKC,0.00,WeatherDisplay:10.37,2013-05-15 07:23:00,
2013-05-15 09:28:00,64.9,54.1,29.86,ENE,68,0.1,0.9,68,0.00,FEW,SKC,0.00,WeatherDisplay:10.37,2013-05-15 07:28:00,
2013-05-15 09:33:00,65.3,54.1,29.86,SSE,158,0.7,1.8,67,0.00,FEW,SKC,0.00,WeatherDisplay:10.37,2013-05-15 07:33:00,
2013-05-15 09:38:00,65.5,53.4,29.86,SSE,158,0.0,0.0,65,0.00,FEW,SKC,0.00,WeatherDisplay:10.37,2013-05-15 07:38:00,
2013-05-15 09:43:00,65.5,53.4,29.85,West,270,0.8,2.3,65,0.00,FEW,SKC,0.00,WeatherDisplay:10.37,2013-05-15 07:43:00,
2013-05-15 09:48:00,65.5,53.4,29.86,WNW,292,0.0,0.0,65,0.00,FEW,SKC,0.00,WeatherDisplay:10.37,2013-05-15 07:48:00,
2013-05-15 09:53:00,66.0,53.5,29.85,East,90,0.0,0.0,64,0.00,FEW,SKC,0.00,WeatherDisplay:10.37,2013-05-15 07:53:00,
2013-05-15 09:58:00,66.7,53.7,29.85,West,270,0.2,1.2,63,0.00,FEW,SKC,0.00,WeatherDisplay:10.37,2013-05-15 07:58:00,
2013-05-15 10:03:00,66.7,53.7,29.85,East,90,1.7,2.3,63,0.00,FEW,SKC,0.00,WeatherDisplay:10.37,2013-05-15 08:03:00,
2013-05-15 10:08:00,67.3,54.3,29.85,ESE,112,1.6,1.6,63,0.00,FEW,SKC,0.00,WeatherDisplay:10.37,2013-05-15 08:08:00,
2013-05-15 10:13:00,67.6,53.7,29.85,West,270,1.7,2.3,61,0.00,FEW,SKC,0.00,WeatherDisplay:10.37,2013-05-15 08:13:00,
2013-05-15 10:18:00,67.8,53.9,29.85,SSW,202,0.0,0.0,61,0.00,FEW,SKC,0.00,WeatherDisplay:10.37,2013-05-15 08:18:00,
2013-05-15 10:23:00,67.8,53.9,29.85,South,180,0.0,0.0,61,0.00,FEW,SKC,0.00,WeatherDisplay:10.37,2013-05-15 08:23:00,
2013-05-15 10:28:00,67.8,53.9,29.85,WNW,292,1.0,3.5,61,0.00,FEW,SKC,0.00,WeatherDisplay:10.37,2013-05-15 08:28:00,
2013-05-15 10:33:00,68.2,53.8,29.85,NNE,22,2.7,4.6,60,0.00,FEW,SKC,0.00,WeatherDisplay:10.37,2013-05-15 08:33:00,
2013-05-15 10:38:00,68.4,53.5,29.85,SSE,158,0.8,1.2,59,0.00,FEW,SKC,0.00,WeatherDisplay:10.37,2013-05-15 08:38:00,
2013-05-15 10:43:00,68.7,54.3,29.85,NNW,338,2.2,2.3,60,0.00,FEW,SKC,0.00,WeatherDisplay:10.37,2013-05-15 08:43:00,
2013-05-15 10:48:00,68.5,53.6,29.85,East,90,1.2,2.3,59,0.00,SCT,SKC,0.00,WeatherDisplay:10.37,2013-05-15 08:48:00,
2013-05-15 10:53:00,68.7,53.8,29.85,SSW,202,2.9,3.5,59,0.00,SCT,SKC,0.00,WeatherDisplay:10.37,2013-05-15 08:53:00,
2013-05-15 10:58:00,68.9,54.0,29.85,ENE,68,1.3,5.8,59,0.00,SCT,SKC,0.00,WeatherDisplay:10.37,2013-05-15 08:58:00,
2013-05-15 11:03:00,69.4,54.0,29.85,East,90,0.3,3.5,58,0.00,SCT,SKC,0.00,WeatherDisplay:10.37,2013-05-15 09:03:00,
2013-05-15 11:08:00,69.6,54.2,29.85,South,180,2.9,3.5,58,0.00,SCT,SKC,0.00,WeatherDisplay:10.37,2013-05-15 09:08:00,
2013-05-15 11:13:00,69.6,54.7,29.85,SSE,158,2.7,4.6,59,0.00,SCT,SKC,0.00,WeatherDisplay:10.37,2013-05-15 09:13:00,
2013-05-15 11:18:00,69.8,54.4,29.85,East,90,0.1,0.0,58,0.00,SCT,SKC,0.00,WeatherDisplay:10.37,2013-05-15 09:18:00,
2013-05-15 11:23:00,69.8,53.4,29.84,SE,135,0.0,0.0,56,0.00,SCT,SKC,0.00,WeatherDisplay:10.37,2013-05-15 09:23:00,
2013-05-15 11:28:00,69.6,53.7,29.84,ENE,68,0.0,0.0,57,0.00,SCT,SKC,0.00,WeatherDisplay:10.37,2013-05-15 09:28:00,
2013-05-15 11:33:00,70.3,54.4,29.84,WSW,248,1.6,4.6,57,0.00,SCT,SKC,0.00,WeatherDisplay:10.37,2013-05-15 09:33:00,
2013-05-15 11:38:00,70.7,54.7,29.84,NW,315,0.0,0.0,57,0.00,SCT,SKC,0.00,WeatherDisplay:10.37,2013-05-15 09:38:00,
2013-05-15 11:43:00,70.3,53.4,29.84,NE,45,1.0,2.3,55,0.00,SCT,SKC,0.00,WeatherDisplay:10.37,2013-05-15 09:43:00,
2013-05-15 11:48:00,70.5,54.5,29.84,SE,135,1.1,2.3,57,0.00,SCT,SKC,0.00,WeatherDisplay:10.37,2013-05-15 09:48:00,
2013-05-15 11:53:00,71.1,55.1,29.83,NNE,22,1.3,3.5,57,0.00,SCT,SKC,0.00,WeatherDisplay:10.37,2013-05-15 09:53:00,
2013-05-15 11:58:00,71.1,54.1,29.83,SSE,158,5.8,5.8,55,0.00,SCT,SKC,0.00,WeatherDisplay:10.37,2013-05-15 09:58:00,
2013-05-15 12:03:00,71.2,54.7,29.83,SSE,158,0.7,1.2,56,0.00,SCT,SKC,0.00,WeatherDisplay:10.37,2013-05-15 10:03:00,
2013-05-15 12:08:00,71.2,54.2,29.83,ENE,68,2.5,2.5,55,0.00,SCT,SKC,0.00,WeatherDisplay:10.37,2013-05-15 10:08:00,
2013-05-15 12:13:00,71.2,55.2,29.83,ESE,112,3.2,3.5,57,0.00,SCT,SKC,0.00,WeatherDisplay:10.37,2013-05-15 10:13:00,
2013-05-15 12:18:00,71.8,54.7,29.83,East,90,1.0,2.0,55,0.00,SCT,SKC,0.00,WeatherDisplay:10.37,2013-05-15 10:18:00,
2013-05-15 12:23:00,72.0,54.9,29.83,ESE,112,0.3,2.3,55,0.00,SCT,SKC,0.00,WeatherDisplay:10.37,2013-05-15 10:23:00,
2013-05-15 12:28:00,72.0,54.9,29.83,ESE,112,2.6,6.9,55,0.00,SCT,SKC,0.00,WeatherDisplay:10.37,2013-05-15 10:28:00,
2013-05-15 12:33:00,72.0,54.9,29.83,ESE,112,1.8,2.3,55,0.00,SCT,SKC,0.00,WeatherDisplay:10.37,2013-05-15 10:33:00,
2013-05-15 12:38:00,72.3,54.2,29.83,South,180,1.3,1.3,53,0.00,SCT,SKC,0.00,WeatherDisplay:10.37,2013-05-15 10:38:00,
2013-05-15 12:43:00,72.0,54.4,29.83,SSE,158,3.6,5.4,54,0.00,SCT,SKC,0.00,WeatherDisplay:10.37,2013-05-15 10:43:00,
2013-05-15 12:48:00,72.1,54.1,29.83,SE,135,4.1,4.6,53,0.00,SCT,SKC,0.00,WeatherDisplay:10.37,2013-05-15 10:48:00,
2013-05-15 12:53:00,72.1,54.6,29.83,ENE,68,1.1,1.2,54,0.00,SCT,SKC,0.00,WeatherDisplay:10.37,2013-05-15 10:53:00,
2013-05-15 12:58:00,72.1,54.6,29.82,SE,135,2.0,3.5,54,0.00,SCT,SKC,0.00,WeatherDisplay:10.37,2013-05-15 10:58:00,
2013-05-15 13:04:00,71.8,54.2,29.82,WNW,292,1.8,2.3,54,0.00,SCT,SKC,0.00,WeatherDisplay:10.37,2013-05-15 11:04:00,
2013-05-15 13:09:00,71.8,53.7,29.82,NE,45,0.3,2.5,53,0.00,SCT,SKC,0.00,WeatherDisplay:10.37,2013-05-15 11:09:00,
2013-05-15 13:14:00,71.4,54.4,29.82,NE,45,1.6,1.6,55,0.00,SCT,SKC,0.00,WeatherDisplay:10.37,2013-05-15 11:14:00,
2013-05-15 13:19:00,72.0,54.9,29.81,ENE,68,1.1,0.0,55,0.00,SCT,SKC,0.00,WeatherDisplay:10.37,2013-05-15 11:19:00,
2013-05-15 13:24:00,72.5,55.4,29.81,East,90,2.5,2.5,55,0.00,SCT,SKC,0.00,WeatherDisplay:10.37,2013-05-15 11:24:00,
2013-05-15 13:30:00,73.4,55.7,29.81,East,82,0.0,3.0,54,0.00,SCT,SKC,0.00,WeatherDisplay:10.37,2013-05-15 11:30:00,
2013-05-15 13:35:00,73.0,54.4,29.81,ESE,112,0.0,0.0,52,0.00,SCT,SKC,0.00,WeatherDisplay:10.37,2013-05-15 11:35:00,
2013-05-15 13:40:00,72.9,54.2,29.81,ESE,112,4.2,4.6,52,0.00,SCT,SKC,0.00,WeatherDisplay:10.37,2013-05-15 11:40:00,
2013-05-15 13:45:00,71.8,54.2,29.81,East,90,0.7,1.2,54,0.00,SCT,SKC,0.00,WeatherDisplay:10.37,2013-05-15 11:45:00,
2013-05-15 13:50:00,73.0,55.4,29.81,SE,135,0.0,0.0,54,0.00,SCT,SKC,0.00,WeatherDisplay:10.37,2013-05-15 11:50:00,
2013-05-15 13:55:00,73.0,53.8,29.81,SSW,202,0.7,2.3,51,0.00,SCT,SKC,0.00,WeatherDisplay:10.37,2013-05-15 11:55:00,
2013-05-15 14:00:00,73.6,54.3,29.80,NE,45,2.3,4.6,51,0.00,SCT,SKC,0.00,WeatherDisplay:10.37,2013-05-15 12:00:00,
2013-05-15 14:05:00,73.4,54.2,29.81,ENE,68,1.9,1.9,51,0.00,SCT,SKC,0.00,WeatherDisplay:10.37,2013-05-15 12:05:00,
2013-05-15 14:10:00,73.4,54.2,29.80,East,90,0.0,0.7,51,0.00,SCT,SKC,0.00,WeatherDisplay:10.37,2013-05-15 12:10:00,
2013-05-15 14:15:00,73.2,54.0,29.80,East,90,1.4,1.6,51,0.00,SCT,SKC,0.00,WeatherDisplay:10.37,2013-05-15 12:15:00,
2013-05-15 14:20:00,72.3,53.7,29.80,SE,135,0.8,3.5,52,0.00,SCT,SKC,0.00,WeatherDisplay:10.37,2013-05-15 12:20:00,
2013-05-15 14:25:00,71.8,54.2,29.80,East,90,1.9,2.3,54,0.00,SCT,SKC,0.00,WeatherDisplay:10.37,2013-05-15 12:25:00,
2013-05-15 14:31:00,71.6,54.1,29.80,ENE,68,0.0,0.0,54,0.00,SCT,SKC,0.00,WeatherDisplay:10.37,2013-05-15 12:31:00,
2013-05-15 14:36:00,71.4,54.4,29.80,South,180,0.0,0.0,55,0.00,SCT,SKC,0.00,WeatherDisplay:10.37,2013-05-15 12:36:00,
2013-05-15 14:41:00,71.2,54.2,29.80,SE,135,0.0,0.0,55,0.00,SCT,SKC,0.00,WeatherDisplay:10.37,2013-05-15 12:41:00,
2013-05-15 14:46:00,71.4,54.4,29.79,East,90,0.0,0.0,55,0.00,SCT,SKC,0.00,WeatherDisplay:10.37,2013-05-15 12:46:00,
2013-05-15 14:51:00,71.4,53.9,29.80,East,90,0.0,0.0,54,0.00,SCT,SKC,0.00,WeatherDisplay:10.37,2013-05-15 12:51:00,
2013-05-15 14:56:00,71.8,54.2,29.79,WSW,248,2.2,2.3,54,0.00,SCT,SKC,0.00,WeatherDisplay:10.37,2013-05-15 12:56:00,
2013-05-15 15:01:00,71.8,54.2,29.79,East,90,0.0,0.0,54,0.00,SCT,SKC,0.00,WeatherDisplay:10.37,2013-05-15 13:01:00,
2013-05-15 15:06:00,72.3,53.7,29.79,East,90,5.1,5.1,52,0.00,SCT,SKC,0.00,WeatherDisplay:10.37,2013-05-15 13:06:00,
2013-05-15 15:12:00,72.3,53.7,29.80,ENE,68,0.1,1.2,52,0.00,SCT,SKC,0.00,WeatherDisplay:10.37,2013-05-15 13:12:00,
2013-05-15 15:17:00,72.0,52.8,29.79,East,90,0.0,0.0,51,0.00,SCT,SKC,0.00,WeatherDisplay:10.37,2013-05-15 13:17:00,
2013-05-15 15:22:00,71.4,53.9,29.80,NE,45,0.1,2.3,54,0.00,SCT,SKC,0.00,WeatherDisplay:10.37,2013-05-15 13:22:00,
2013-05-15 15:27:00,71.4,54.4,29.80,SE,135,0.0,1.2,55,0.00,SCT,SKC,0.00,WeatherDisplay:10.37,2013-05-15 13:27:00,
2013-05-15 15:33:00,71.4,54.4,29.80,East,100,1.0,1.0,55,0.00,SCT,SKC,0.00,WeatherDisplay:10.37,2013-05-15 13:33:00,
2013-05-15 15:38:00,72.6,55.0,29.79,East,82,2.0,2.0,54,0.00,SCT,SKC,0.00,WeatherDisplay:10.37,2013-05-15 13:38:00,
2013-05-15 15:43:00,72.3,53.7,29.79,East,90,1.2,1.2,52,0.00,SCT,SKC,0.00,WeatherDisplay:10.37,2013-05-15 13:43:00,
2013-05-15 15:48:00,72.1,54.6,29.79,East,90,1.3,1.3,54,0.00,SCT,SKC,0.00,WeatherDisplay:10.37,2013-05-15 13:48:00,
2013-05-15 15:53:00,72.3,54.7,29.79,South,180,2.0,3.5,54,0.00,SCT,SKC,0.00,WeatherDisplay:10.37,2013-05-15 13:53:00,
2013-05-15 15:59:00,73.0,54.4,29.78,SSE,149,0.0,1.0,52,0.00,SCT,SKC,0.00,WeatherDisplay:10.37,2013-05-15 13:59:00,
2013-05-15 16:04:00,73.0,54.9,29.78,East,90,3.8,3.8,53,0.00,SCT,SKC,0.00,WeatherDisplay:10.37,2013-05-15 14:04:00,
2013-05-15 16:10:00,73.4,55.7,29.78,ESE,115,1.0,5.0,54,0.00,SCT,SKC,0.00,WeatherDisplay:10.37,2013-05-15 14:10:00,
2013-05-15 16:15:00,73.4,54.2,29.78,ESE,122,0.0,0.0,51,0.00,SCT,SKC,0.00,WeatherDisplay:10.37,2013-05-15 14:15:00,
2013-05-15 16:20:00,73.2,54.5,29.78,SE,140,2.0,2.0,52,0.00,FEW,SKC,0.00,WeatherDisplay:10.37,2013-05-15 14:20:00,
2013-05-15 16:25:00,73.6,54.9,29.78,SSE,158,2.2,2.3,52,0.00,FEW,SKC,0.00,WeatherDisplay:10.37,2013-05-15 14:25:00,
2013-05-15 16:30:00,73.0,53.8,29.78,ESE,112,1.7,3.5,51,0.00,FEW,SKC,0.00,WeatherDisplay:10.37,2013-05-15 14:30:00,
2013-05-15 16:35:00,72.7,54.0,29.78,South,180,1.6,4.6,52,0.00,FEW,SKC,0.00,WeatherDisplay:10.37,2013-05-15 14:35:00,
2013-05-15 16:41:00,73.0,53.8,29.78,ESE,112,0.0,0.0,51,0.00,FEW,SKC,0.00,WeatherDisplay:10.37,2013-05-15 14:41:00,
2013-05-15 16:46:00,72.7,53.0,29.77,SSE,158,1.7,2.3,50,0.00,FEW,SKC,0.00,WeatherDisplay:10.37,2013-05-15 14:46:00,
2013-05-15 16:51:00,72.7,53.0,29.77,North,0,2.2,2.3,50,0.00,FEW,SKC,0.00,WeatherDisplay:10.37,2013-05-15 14:51:00,
2013-05-15 16:57:00,72.3,53.2,29.78,NE,39,0.0,0.0,51,0.00,FEW,SKC,0.00,WeatherDisplay:10.37,2013-05-15 14:57:00,
2013-05-15 17:02:00,72.3,53.2,29.77,SSE,158,3.1,3.5,51,0.00,FEW,SKC,0.00,WeatherDisplay:10.37,2013-05-15 15:02:00,
2013-05-15 17:07:00,72.1,53.0,29.77,SE,135,0.8,3.5,51,0.00,FEW,SKC,0.00,WeatherDisplay:10.37,2013-05-15 15:07:00,
2013-05-15 17:13:00,72.1,53.0,29.77,SSE,159,1.0,3.0,51,0.00,FEW,SKC,0.00,WeatherDisplay:10.37,2013-05-15 15:13:00,
2013-05-15 17:18:00,72.1,53.0,29.77,ESE,122,0.0,0.0,51,0.00,CLR,SKC,0.00,WeatherDisplay:10.37,2013-05-15 15:18:00,
2013-05-15 17:24:00,71.8,52.7,29.77,ESE,116,2.0,2.0,51,0.00,CLR,SKC,0.00,WeatherDisplay:10.37,2013-05-15 15:24:00,
2013-05-15 17:29:00,71.8,53.2,29.77,SE,143,0.0,0.0,52,0.00,CLR,SKC,0.00,WeatherDisplay:10.37,2013-05-15 15:29:00,
2013-05-15 17:34:00,71.4,52.9,29.77,ESE,112,0.7,2.3,52,0.00,CLR,SKC,0.00,WeatherDisplay:10.37,2013-05-15 15:34:00,
2013-05-15 17:39:00,71.2,52.7,29.77,SSE,158,1.1,2.3,52,0.00,CLR,SKC,0.00,WeatherDisplay:10.37,2013-05-15 15:39:00,
2013-05-15 17:44:00,71.1,53.1,29.77,East,90,0.7,2.3,53,0.00,CLR,SKC,0.00,WeatherDisplay:10.37,2013-05-15 15:44:00,
2013-05-15 17:49:00,71.1,53.1,29.77,ESE,112,3.8,3.8,53,0.00,CLR,SKC,0.00,WeatherDisplay:10.37,2013-05-15 15:49:00,
2013-05-15 17:54:00,71.1,53.1,29.77,SSE,158,5.1,5.1,53,0.00,CLR,SKC,0.00,WeatherDisplay:10.37,2013-05-15 15:54:00,
2013-05-15 17:59:00,71.2,52.7,29.77,SE,135,0.3,2.5,52,0.00,CLR,SKC,0.00,WeatherDisplay:10.37,2013-05-15 15:59:00,
2013-05-15 18:04:00,71.2,53.2,29.77,SE,135,1.5,3.5,53,0.00,CLR,SKC,0.00,WeatherDisplay:10.37,2013-05-15 16:04:00,
2013-05-15 18:09:00,71.2,53.7,29.77,ESE,112,0.9,1.2,54,0.00,CLR,SKC,0.00,WeatherDisplay:10.37,2013-05-15 16:09:00,
2013-05-15 18:15:00,70.9,52.4,29.77,South,180,0.0,0.0,52,0.00,CLR,SKC,0.00,WeatherDisplay:10.37,2013-05-15 16:15:00,
2013-05-15 18:19:00,70.9,52.9,29.77,East,90,3.5,3.8,53,0.00,CLR,SKC,0.00,WeatherDisplay:10.37,2013-05-15 16:19:00,
2013-05-15 18:25:00,70.9,52.9,29.77,East,90,1.0,2.3,53,0.00,CLR,SKC,0.00,WeatherDisplay:10.37,2013-05-15 16:25:00,
2013-05-15 18:30:00,70.7,52.8,29.77,ESE,122,1.0,2.0,53,0.00,CLR,SKC,0.00,WeatherDisplay:10.37,2013-05-15 16:30:00,
2013-05-15 18:35:00,70.7,52.2,29.77,ESE,109,1.0,2.0,52,0.00,CLR,SKC,0.00,WeatherDisplay:10.37,2013-05-15 16:35:00,
2013-05-15 18:40:00,70.5,52.6,29.77,ESE,112,1.0,1.0,53,0.00,CLR,SKC,0.00,WeatherDisplay:10.37,2013-05-15 16:40:00,
2013-05-15 18:45:00,70.5,52.6,29.77,ESE,112,0.0,0.0,53,0.00,CLR,SKC,0.00,WeatherDisplay:10.37,2013-05-15 16:45:00,
2013-05-15 18:50:00,70.2,52.2,29.77,NNE,22,0.8,4.6,53,0.00,CLR,SKC,0.00,WeatherDisplay:10.37,2013-05-15 16:50:00,
2013-05-15 18:55:00,70.2,52.2,29.77,SSE,158,2.0,2.3,53,0.00,CLR,SKC,0.00,WeatherDisplay:10.37,2013-05-15 16:55:00,
2013-05-15 19:00:00,70.0,52.1,29.77,ESE,112,0.2,1.2,53,0.00,CLR,SKC,0.00,WeatherDisplay:10.37,2013-05-15 17:00:00,
2013-05-15 19:05:00,70.0,52.1,29.77,NE,45,3.4,3.5,53,0.00,CLR,SKC,0.00,WeatherDisplay:10.37,2013-05-15 17:05:00,
2013-05-15 19:10:00,69.6,52.2,29.77,SSE,158,3.5,3.5,54,0.00,CLR,SKC,0.00,WeatherDisplay:10.37,2013-05-15 17:10:00,
2013-05-15 19:15:00,69.6,52.2,29.76,WNW,292,2.0,2.3,54,0.00,CLR,SKC,0.00,WeatherDisplay:10.37,2013-05-15 17:15:00,
2013-05-15 19:20:00,69.3,51.9,29.76,SE,135,1.0,4.6,54,0.00,CLR,SKC,0.00,WeatherDisplay:10.37,2013-05-15 17:20:00,
2013-05-15 19:25:00,68.9,51.6,29.76,South,180,0.6,2.2,54,0.00,CLR,SKC,0.00,WeatherDisplay:10.37,2013-05-15 17:25:00,
2013-05-15 19:31:00,68.9,51.6,29.76,ESE,112,0.0,0.0,54,0.00,CLR,SKC,0.00,WeatherDisplay:10.37,2013-05-15 17:31:00,
2013-05-15 19:36:00,68.2,51.9,29.76,SE,135,0.0,0.0,56,0.00,CLR,SKC,0.00,WeatherDisplay:10.37,2013-05-15 17:36:00,
2013-05-15 19:41:00,67.8,51.5,29.76,NE,45,0.0,0.0,56,0.00,CLR,SKC,0.00,WeatherDisplay:10.37,2013-05-15 17:41:00,
2013-05-15 19:46:00,67.6,51.9,29.76,East,90,1.1,1.2,57,0.00,CLR,SKC,0.00,WeatherDisplay:10.37,2013-05-15 17:46:00,
2013-05-15 19:52:00,67.5,51.7,29.77,East,101,0.0,0.0,57,0.00,CLR,SKC,0.00,WeatherDisplay:10.37,2013-05-15 17:52:00,
2013-05-15 19:57:00,67.2,51.9,29.76,SE,133,0.0,0.0,58,0.00,CLR,SKC,0.00,WeatherDisplay:10.37,2013-05-15 17:57:00,
2013-05-15 20:02:00,66.9,51.7,29.77,South,180,0.0,0.0,58,0.00,CLR,SKC,0.00,WeatherDisplay:10.37,2013-05-15 18:02:00,
2013-05-15 20:07:00,66.0,51.7,29.77,SW,225,0.0,0.0,60,0.00,CLR,SKC,0.00,WeatherDisplay:10.37,2013-05-15 18:07:00,
2013-05-15 20:12:00,64.9,51.2,29.76,South,180,0.5,1.2,61,0.00,CLR,SKC,0.00,WeatherDisplay:10.37,2013-05-15 18:12:00,
2013-05-15 20:17:00,64.2,50.9,29.76,SW,225,0.0,0.0,62,0.00,CLR,SKC,0.00,WeatherDisplay:10.37,2013-05-15 18:17:00,
2013-05-15 20:23:00,63.5,51.1,29.77,WSW,250,0.0,0.0,64,0.00,CLR,SKC,0.00,WeatherDisplay:10.37,2013-05-15 18:23:00,
2013-05-15 20:28:00,63.5,51.1,29.76,West,270,0.0,0.0,64,0.00,CLR,SKC,0.00,WeatherDisplay:10.37,2013-05-15 18:28:00,
2013-05-15 20:33:00,61.9,50.8,29.77,WNW,292,0.0,0.0,67,0.00,CLR,SKC,0.00,WeatherDisplay:10.37,2013-05-15 18:33:00,
2013-05-15 20:38:00,61.5,50.5,29.77,WNW,292,0.0,0.0,67,0.00,CLR,SKC,0.00,WeatherDisplay:10.37,2013-05-15 18:38:00,
2013-05-15 20:43:00,61.2,50.5,29.77,WNW,292,0.0,0.0,68,0.00,CLR,SKC,0.00,WeatherDisplay:10.37,2013-05-15 18:43:00,
2013-05-15 20:48:00,60.6,50.8,29.78,WNW,292,0.0,0.0,70,0.00,CLR,SKC,0.00,WeatherDisplay:10.37,2013-05-15 18:48:00,
2013-05-15 20:53:00,60.6,50.8,29.78,WNW,292,0.0,0.0,70,0.00,CLR,SKC,0.00,WeatherDisplay:10.37,2013-05-15 18:53:00,
2013-05-15 20:58:00,60.1,50.6,29.78,WNW,292,0.0,0.0,71,0.00,CLR,SKC,0.00,WeatherDisplay:10.37,2013-05-15 18:58:00,
2013-05-15 21:03:00,59.5,50.5,29.79,WNW,292,0.0,0.0,72,0.00,CLR,SKC,0.00,WeatherDisplay:10.37,2013-05-15 19:03:00,
2013-05-15 21:08:00,59.4,50.3,29.79,WNW,292,0.0,0.0,72,0.00,CLR,SKC,0.00,WeatherDisplay:10.37,2013-05-15 19:08:00,
2013-05-15 21:13:00,59.0,50.4,29.79,WNW,292,0.0,0.0,73,0.00,CLR,SKC,0.00,WeatherDisplay:10.37,2013-05-15 19:13:00,
2013-05-15 21:18:00,58.8,50.5,29.79,WNW,292,0.0,0.0,74,0.00,CLR,SKC,0.00,WeatherDisplay:10.37,2013-05-15 19:18:00,
2013-05-15 21:23:00,58.6,50.7,29.79,WNW,292,0.0,0.0,75,0.00,CLR,SKC,0.00,WeatherDisplay:10.37,2013-05-15 19:23:00,
2013-05-15 21:28:00,58.1,50.2,29.79,WNW,292,0.0,0.0,75,0.00,CLR,SKC,0.00,WeatherDisplay:10.37,2013-05-15 19:28:00,
2013-05-15 21:33:00,58.1,50.2,29.79,WNW,292,0.0,0.0,75,0.00,CLR,SKC,0.00,WeatherDisplay:10.37,2013-05-15 19:33:00,
2013-05-15 21:39:00,57.7,50.2,29.79,WNW,292,0.0,0.0,76,0.00,CLR,SKC,0.00,WeatherDisplay:10.37,2013-05-15 19:39:00,
2013-05-15 21:44:00,57.1,49.9,29.79,WNW,292,0.0,0.0,77,0.00,CLR,SKC,0.00,WeatherDisplay:10.37,2013-05-15 19:44:00,
2013-05-15 21:49:00,57.0,50.2,29.79,WNW,292,0.0,0.0,78,0.00,CLR,SKC,0.00,WeatherDisplay:10.37,2013-05-15 19:49:00,
2013-05-15 21:54:00,57.0,50.2,29.79,WNW,292,0.0,0.0,78,0.00,CLR,SKC,0.00,WeatherDisplay:10.37,2013-05-15 19:54:00,
2013-05-15 21:59:00,56.5,49.7,29.79,WNW,286,0.0,0.0,78,0.00,CLR,SKC,0.00,WeatherDisplay:10.37,2013-05-15 19:59:00,
2013-05-15 22:04:00,56.5,50.0,29.79,WNW,292,0.0,0.0,79,0.00,CLR,SKC,0.00,WeatherDisplay:10.37,2013-05-15 20:04:00,
2013-05-15 22:09:00,56.1,50.0,29.79,WNW,292,0.0,0.0,80,0.00,CLR,SKC,0.00,WeatherDisplay:10.37,2013-05-15 20:09:00,
2013-05-15 22:14:00,55.9,49.9,29.79,WNW,292,0.0,0.0,80,0.00,CLR,SKC,0.00,WeatherDisplay:10.37,2013-05-15 20:14:00,
2013-05-15 22:20:00,55.9,49.9,29.79,WNW,292,0.0,0.0,80,0.00,CLR,SKC,0.00,WeatherDisplay:10.37,2013-05-15 20:20:00,
2013-05-15 22:25:00,55.6,49.8,29.79,WNW,292,0.0,0.0,81,0.00,CLR,SKC,0.00,WeatherDisplay:10.37,2013-05-15 20:25:00,
2013-05-15 22:30:00,55.4,49.7,29.79,WNW,292,0.0,0.0,81,0.00,CLR,SKC,0.00,WeatherDisplay:10.37,2013-05-15 20:30:00,
2013-05-15 22:35:00,55.2,49.5,29.79,WNW,292,0.0,0.0,81,0.00,CLR,SKC,0.00,WeatherDisplay:10.37,2013-05-15 20:35:00,
2013-05-15 22:40:00,55.2,49.8,29.79,WNW,292,0.0,0.0,82,0.00,CLR,SKC,0.00,WeatherDisplay:10.37,2013-05-15 20:40:00,
2013-05-15 22:45:00,54.9,49.5,29.79,WNW,292,0.0,0.0,82,0.00,CLR,SKC,0.00,WeatherDisplay:10.37,2013-05-15 20:45:00,
2013-05-15 22:50:00,54.7,49.3,29.79,WNW,292,0.0,0.0,82,0.00,CLR,SKC,0.00,WeatherDisplay:10.37,2013-05-15 20:50:00,
2013-05-15 22:55:00,54.5,49.4,29.79,WNW,292,0.0,0.0,83,0.00,CLR,SKC,0.00,WeatherDisplay:10.37,2013-05-15 20:55:00,
2013-05-15 23:00:00,54.5,49.4,29.79,WNW,292,0.0,0.0,83,0.00,CLR,SKC,0.00,WeatherDisplay:10.37,2013-05-15 21:00:00,
2013-05-15 23:05:00,54.3,49.6,29.79,WNW,292,0.0,0.0,84,0.00,CLR,SKC,0.00,WeatherDisplay:10.37,2013-05-15 21:05:00,
2013-05-15 23:10:00,54.1,49.4,29.79,WNW,292,0.0,0.0,84,0.00,CLR,SKC,0.00,WeatherDisplay:10.37,2013-05-15 21:10:00,
2013-05-15 23:15:00,54.1,49.4,29.79,WNW,292,0.0,0.0,84,0.00,CLR,SKC,0.00,WeatherDisplay:10.37,2013-05-15 21:15:00,
2013-05-15 23:21:00,54.0,49.2,29.79,WNW,292,0.0,0.0,84,0.00,CLR,SKC,0.00,WeatherDisplay:10.37,2013-05-15 21:21:00,
2013-05-15 23:26:00,53.8,49.1,29.79,WNW,292,0.0,0.0,84,0.00,CLR,SKC,0.00,WeatherDisplay:10.37,2013-05-15 21:26:00,
2013-05-15 23:31:00,53.4,49.0,29.79,WNW,292,0.0,0.0,85,0.00,CLR,SKC,0.00,WeatherDisplay:10.37,2013-05-15 21:31:00,
2013-05-15 23:36:00,53.4,49.0,29.79,WNW,292,0.0,0.0,85,0.00,CLR,SKC,0.00,WeatherDisplay:10.37,2013-05-15 21:36:00,
2013-05-15 23:41:00,53.4,49.0,29.79,WNW,292,0.0,0.0,85,0.00,CLR,SKC,0.00,WeatherDisplay:10.37,2013-05-15 21:41:00,
2013-05-15 23:46:00,53.2,48.8,29.80,WNW,292,0.0,0.0,85,0.00,CLR,SKC,0.00,WeatherDisplay:10.37,2013-05-15 21:46:00,
2013-05-15 23:51:00,53.1,49.0,29.79,WNW,292,0.0,0.0,86,0.00,CLR,SKC,0.00,WeatherDisplay:10.37,2013-05-15 21:51:00,
2013-05-15 23:56:00,52.9,48.8,29.79,WNW,292,0.0,0.0,86,0.00,CLR,SKC,0.00,WeatherDisplay:10.37,2013-05-15 21:56:00,